Time;durP1;ratioP1;P1;durP2;ratioP2;P2;SDS_P1;SDS_P2;PMS_P1;PMS_P2;Temp;Humidity;BMP_temperature;BMP_pressure;BME280_temperature;BME280_humidity;BME280_pressure;Samples;Min_cycle;Max_cycle;Signal;HPM_P1;HPM_P2
2022/12/02 00:01:16;;;;;;;35.25;19.70;;;5.90;1.00;;;;;;5021481;28;20181;-84
2022/12/02 00:03:42;;;;;;;46.47;23.50;;;5.90;1.00;;;;;;5007136;28;20215;-84
2022/12/02 00:06:17;;;;;;;40.15;20.17;;;5.90;1.00;;;;;;4986855;28;20966;-84
2022/12/02 00:08:43;;;;;;;46.72;22.95;;;5.90;1.00;;;;;;4976847;28;20179;-84
2022/12/02 00:11:30;;;;;;;42.47;22.47;;;5.90;1.00;;;;;;5003154;28;20246;-84
2022/12/02 00:13:58;;;;;;;45.33;23.23;;;5.80;1.00;;;;;;4981214;28;20230;-85
2022/12/02 00:16:25;;;;;;;49.58;24.85;;;5.90;1.00;;;;;;5010055;28;20219;-84
2022/12/02 00:18:52;;;;;;;52.75;26.73;;;5.80;99.90;;;;;;4995674;28;20172;-84
2022/12/02 00:21:18;;;;;;;62.75;28.15;;;5.80;99.90;;;;;;5003213;28;20265;-84
2022/12/02 00:23:44;;;;;;;59.63;26.05;;;5.80;99.90;;;;;;4996039;28;20171;-83
2022/12/02 00:26:10;;;;;;;56.03;26.77;;;5.80;1.00;;;;;;5002371;28;20214;-84
2022/12/02 00:28:35;;;;;;;56.83;27.43;;;5.90;1.00;;;;;;5014237;28;20229;-84
2022/12/02 00:31:01;;;;;;;55.23;25.77;;;5.90;1.00;;;;;;5006079;28;20625;-84
2022/12/02 00:33:26;;;;;;;62.47;27.67;;;5.90;1.00;;;;;;5002869;28;20301;-84
2022/12/02 00:35:52;;;;;;;50.57;25.60;;;5.90;1.00;;;;;;4989787;28;20199;-84
2022/12/02 00:38:17;;;;;;;56.87;27.37;;;5.80;99.90;;;;;;5008976;28;20217;-85
2022/12/02 00:40:43;;;;;;;58.10;29.00;;;5.80;1.00;;;;;;4989129;28;20183;-84
2022/12/02 00:48:36;;;;;;;58.08;27.23;;;5.70;1.00;;;;;;5004311;28;20552;-83
2022/12/02 00:51:02;;;;;;;60.80;27.13;;;5.70;1.00;;;;;;4999019;28;20215;-84
2022/12/02 00:53:28;;;;;;;54.23;25.73;;;5.60;1.00;;;;;;4986462;28;20200;-84
2022/12/02 00:55:54;;;;;;;59.77;27.83;;;5.60;1.00;;;;;;5013433;28;20473;-84
2022/12/02 00:58:19;;;;;;;58.37;29.00;;;5.60;55.00;;;;;;5003372;28;20195;-84
2022/12/02 01:00:45;;;;;;;58.17;28.43;;;5.70;99.90;;;;;;4992386;28;20650;-85
2022/12/02 01:03:10;;;;;;;59.30;29.40;;;5.70;99.90;;;;;;5002445;28;20193;-85
2022/12/02 01:05:36;;;;;;;54.63;29.90;;;5.70;99.90;;;;;;5005179;28;20199;-84
2022/12/02 01:08:02;;;;;;;58.33;29.37;;;5.80;99.90;;;;;;5008299;28;20189;-84
2022/12/02 01:10:27;;;;;;;63.13;30.00;;;5.80;99.90;;;;;;4991887;28;20211;-86
2022/12/02 01:12:53;;;;;;;62.37;27.87;;;5.80;99.90;;;;;;5007323;28;20249;-84
2022/12/02 01:15:18;;;;;;;60.93;29.50;;;5.80;78.00;;;;;;4992762;28;20227;-84
2022/12/02 01:17:44;;;;;;;59.60;29.87;;;5.80;99.90;;;;;;5009392;28;20182;-84
2022/12/02 01:20:10;;;;;;;56.87;28.27;;;5.90;99.90;;;;;;4993189;28;20258;-84
2022/12/02 01:22:35;;;;;;;61.63;29.30;;;5.90;1.00;;;;;;4987247;28;20175;-84
2022/12/02 01:25:01;;;;;;;66.13;30.80;;;5.90;36.40;;;;;;4981379;28;20297;-84
2022/12/02 01:27:26;;;;;;;56.67;28.37;;;5.80;29.10;;;;;;5010012;28;20179;-85
2022/12/02 01:29:52;;;;;;;55.03;26.10;;;5.80;92.10;;;;;;4993421;28;20183;-83
2022/12/02 01:32:18;;;;;;;49.07;24.70;;;5.80;99.90;;;;;;4996735;28;20189;-84
2022/12/02 01:34:44;;;;;;;50.92;24.83;;;5.80;99.90;;;;;;4990815;28;20207;-84
2022/12/02 01:37:10;;;;;;;51.87;25.00;;;5.80;1.00;;;;;;5009778;28;20226;-85
2022/12/02 01:39:35;;;;;;;57.63;26.30;;;5.60;1.00;;;;;;5011831;28;20425;-85
2022/12/02 01:42:01;;;;;;;56.47;23.90;;;5.50;1.00;;;;;;4996504;28;20238;-84
2022/12/02 01:44:26;;;;;;;55.53;26.57;;;5.50;1.00;;;;;;5011570;28;20601;-85
2022/12/02 01:46:52;;;;;;;59.07;26.07;;;5.40;1.00;;;;;;5000145;28;20674;-85
2022/12/02 01:49:18;;;;;;;56.97;27.47;;;5.40;99.90;;;;;;5011356;28;20245;-86
2022/12/02 01:51:44;;;;;;;59.05;27.95;;;5.30;99.90;;;;;;5004238;28;20676;-85
2022/12/02 01:54:09;;;;;;;63.77;27.27;;;5.30;1.00;;;;;;4994724;28;20179;-84
2022/12/02 01:56:35;;;;;;;53.40;24.27;;;5.30;1.00;;;;;;5000540;28;20234;-84
2022/12/02 01:59:01;;;;;;;54.40;23.70;;;5.30;1.00;;;;;;5014348;28;20186;-86
2022/12/02 02:01:29;;;;;;;50.43;25.30;;;5.30;1.00;;;;;;5001022;28;20184;-85
2022/12/02 02:03:55;;;;;;;52.90;26.20;;;5.30;1.00;;;;;;5013721;28;20245;-85
2022/12/02 02:06:22;;;;;;;55.53;26.40;;;5.30;1.00;;;;;;5001963;28;20204;-86
2022/12/02 02:08:47;;;;;;;53.13;26.35;;;5.30;1.00;;;;;;5014018;28;20421;-86
2022/12/02 02:11:13;;;;;;;53.87;27.60;;;5.30;1.00;;;;;;5002678;28;20207;-86
2022/12/02 02:13:39;;;;;;;67.77;26.33;;;5.20;1.00;;;;;;5014254;28;20205;-85
2022/12/02 02:16:05;;;;;;;59.65;28.73;;;5.20;4.00;;;;;;5004090;28;20202;-85
2022/12/02 02:18:30;;;;;;;57.00;27.87;;;5.10;99.90;;;;;;4994540;28;20190;-86
2022/12/02 02:20:57;;;;;;;55.77;25.87;;;5.20;1.00;;;;;;5004281;28;20452;-87
2022/12/02 02:23:24;;;;;;;58.65;26.05;;;5.20;1.00;;;;;;5012358;28;20683;-86
2022/12/02 02:25:56;;;;;;;66.15;26.83;;;5.20;1.00;;;;;;5012285;28;20210;-83
2022/12/02 02:28:25;;;;;;;62.10;28.13;;;5.30;1.00;;;;;;5019528;28;20677;-85
2022/12/02 02:30:54;;;;;;;68.13;28.02;;;5.30;1.00;;;;;;5012815;28;20208;-86
2022/12/02 02:33:20;;;;;;;63.53;26.77;;;5.30;1.00;;;;;;5010552;28;20184;-85
2022/12/02 02:35:47;;;;;;;59.08;27.83;;;5.30;1.00;;;;;;5014233;28;20199;-85
2022/12/02 02:38:19;;;;;;;65.22;28.45;;;5.30;99.90;;;;;;5000641;28;20187;-85
2022/12/02 02:40:46;;;;;;;63.17;26.92;;;5.20;99.90;;;;;;5013584;28;20282;-87
2022/12/02 02:43:11;;;;;;;61.33;26.95;;;5.20;99.90;;;;;;5017890;28;20253;-83
2022/12/02 02:45:39;;;;;;;58.20;27.20;;;5.20;1.00;;;;;;5015975;28;20211;-85
2022/12/02 02:48:08;;;;;;;60.35;26.70;;;5.20;1.00;;;;;;5016638;28;20475;-85
2022/12/02 02:50:37;;;;;;;60.92;29.15;;;5.20;1.00;;;;;;5011816;28;20214;-86
2022/12/02 02:53:04;;;;;;;61.85;26.38;;;5.20;67.40;;;;;;5013169;28;20191;-87
2022/12/02 02:55:30;;;;;;;66.28;29.40;;;5.20;14.60;;;;;;4990131;28;20283;-85
2022/12/02 02:58:07;;;;;;;64.85;29.17;;;5.20;17.40;;;;;;4995746;28;20187;-84
2022/12/02 03:00:33;;;;;;;61.58;29.30;;;5.20;1.00;;;;;;5016633;28;20206;-86
2022/12/02 03:02:58;;;;;;;65.13;30.33;;;5.20;1.00;;;;;;4995886;28;20206;-85
2022/12/02 03:05:24;;;;;;;66.20;26.43;;;5.10;1.00;;;;;;5016739;28;20699;-86
2022/12/02 03:07:50;;;;;;;62.97;27.43;;;5.10;1.00;;;;;;4995719;28;20186;-86
2022/12/02 03:10:16;;;;;;;63.42;26.48;;;5.10;1.00;;;;;;5018491;28;20214;-85
2022/12/02 03:12:42;;;;;;;61.78;27.25;;;5.20;99.90;;;;;;5009451;28;20191;-86
2022/12/02 03:15:08;;;;;;;59.25;28.30;;;5.30;99.90;;;;;;5008339;28;20206;-85
2022/12/02 03:17:35;;;;;;;59.40;27.80;;;5.40;99.90;;;;;;5012966;28;20551;-86
2022/12/02 03:20:01;;;;;;;64.63;28.83;;;5.40;99.90;;;;;;5011757;28;20183;-86
2022/12/02 03:22:26;;;;;;;70.70;29.27;;;5.50;1.00;;;;;;5013057;28;20224;-85
2022/12/02 03:24:52;;;;;;;67.43;28.53;;;5.50;21.60;;;;;;5017283;28;20209;-86
2022/12/02 03:27:18;;;;;;;69.20;30.10;;;5.60;1.00;;;;;;5013704;28;20178;-85
2022/12/02 03:29:44;;;;;;;73.03;31.73;;;5.60;1.00;;;;;;4997423;28;20187;-85
2022/12/02 03:32:10;;;;;;;70.85;31.45;;;5.60;99.90;;;;;;5017426;28;20227;-86
2022/12/02 03:34:37;;;;;;;86.17;35.70;;;5.60;99.90;;;;;;5019133;28;20187;-86
2022/12/02 03:37:02;;;;;;;99.88;39.53;;;5.60;1.00;;;;;;5013741;28;20171;-86
2022/12/02 03:39:28;;;;;;;82.87;35.47;;;5.60;1.00;;;;;;4999527;28;20214;-85
2022/12/02 03:41:54;;;;;;;92.30;37.20;;;5.50;99.90;;;;;;5009600;28;20176;-86
2022/12/02 03:44:20;;;;;;;79.53;33.73;;;5.50;99.90;;;;;;4999396;28;20188;-85
2022/12/02 03:46:46;;;;;;;98.17;37.67;;;5.40;99.90;;;;;;4983535;28;20203;-85
2022/12/02 03:49:12;;;;;;;98.50;35.97;;;5.40;1.00;;;;;;5017981;28;20175;-87
2022/12/02 03:51:38;;;;;;;81.20;34.07;;;5.40;1.00;;;;;;5009164;28;20290;-85
2022/12/02 03:54:04;;;;;;;85.27;36.40;;;5.40;99.90;;;;;;5017205;28;20972;-86
2022/12/02 03:56:34;;;;;;;85.60;37.37;;;5.40;99.90;;;;;;5002664;28;20249;-88
2022/12/02 03:59:00;;;;;;;85.07;34.40;;;5.40;85.10;;;;;;4995621;28;20180;-87
2022/12/02 04:01:25;;;;;;;72.07;33.10;;;5.30;1.00;;;;;;5004645;28;20199;-84
2022/12/02 04:03:51;;;;;;;65.50;31.60;;;5.40;44.80;;;;;;4979199;28;20275;-83
2022/12/02 04:06:16;;;;;;;73.80;32.90;;;5.30;9.60;;;;;;4985153;28;20203;-84
2022/12/02 04:08:42;;;;;;;81.33;33.83;;;5.30;89.90;;;;;;5015095;28;20175;-83
2022/12/02 04:11:07;;;;;;;75.70;31.57;;;5.40;99.90;;;;;;5003924;28;20687;-85
2022/12/02 04:13:33;;;;;;;65.17;30.90;;;5.40;63.20;;;;;;4996475;28;20178;-83
2022/12/02 04:15:58;;;;;;;73.07;32.50;;;5.40;1.00;;;;;;5004038;28;20283;-85
2022/12/02 04:18:24;;;;;;;59.37;27.73;;;5.40;1.00;;;;;;4979624;28;20252;-85
2022/12/02 04:20:50;;;;;;;68.17;30.73;;;5.40;1.00;;;;;;5005837;28;20249;-84
2022/12/02 04:23:15;;;;;;;59.83;28.30;;;5.40;1.00;;;;;;4995547;28;20183;-84
2022/12/02 04:25:41;;;;;;;60.23;27.70;;;5.40;1.00;;;;;;5008560;28;20233;-84
2022/12/02 04:28:07;;;;;;;58.80;26.50;;;5.40;1.00;;;;;;5001556;28;20206;-84
2022/12/02 04:30:32;;;;;;;56.08;26.25;;;5.30;99.90;;;;;;5003231;28;20207;-83
2022/12/02 04:32:58;;;;;;;54.40;24.30;;;5.30;99.90;;;;;;4991739;28;20184;-84
2022/12/02 04:35:24;;;;;;;52.90;25.10;;;5.40;99.90;;;;;;4988824;28;20195;-84
2022/12/02 04:37:54;;;;;;;46.43;24.00;;;5.30;17.60;;;;;;5010415;28;20183;-85
2022/12/02 04:40:19;;;;;;;49.80;25.55;;;5.30;1.00;;;;;;5002505;28;20462;-84
2022/12/02 04:42:45;;;;;;;58.10;29.30;;;5.30;34.00;;;;;;5010180;28;20192;-83
2022/12/02 04:45:11;;;;;;;57.00;27.50;;;5.30;1.00;;;;;;5002460;28;20199;-84
2022/12/02 04:47:36;;;;;;;66.47;30.10;;;5.30;53.90;;;;;;5012221;28;20277;-86
2022/12/02 04:50:03;;;;;;;68.93;28.77;;;5.30;1.00;;;;;;5002832;28;20264;-84
2022/12/02 04:52:29;;;;;;;60.40;28.30;;;5.30;49.40;;;;;;4992962;28;20546;-84
2022/12/02 04:54:54;;;;;;;60.17;27.63;;;5.30;1.00;;;;;;5001049;28;20278;-84
2022/12/02 04:57:20;;;;;;;62.17;28.40;;;5.30;1.00;;;;;;5010092;28;20523;-83
2022/12/02 04:59:45;;;;;;;57.97;27.03;;;5.30;1.00;;;;;;4999952;28;20179;-84
2022/12/02 05:02:11;;;;;;;57.73;26.23;;;5.30;1.00;;;;;;4997531;28;20215;-86
2022/12/02 05:04:36;;;;;;;62.33;26.87;;;5.20;1.00;;;;;;5001375;28;20214;-83
2022/12/02 05:07:02;;;;;;;57.67;28.23;;;5.20;1.00;;;;;;4999462;28;20234;-85
2022/12/02 05:09:27;;;;;;;59.37;27.20;;;5.10;1.00;;;;;;5007162;28;20221;-84
2022/12/02 05:11:53;;;;;;;60.67;25.63;;;5.10;17.90;;;;;;5000531;28;20207;-84
2022/12/02 05:14:18;;;;;;;57.40;26.40;;;5.10;99.90;;;;;;4994305;28;20187;-85
2022/12/02 05:16:44;;;;;;;60.03;28.43;;;5.10;99.90;;;;;;4998608;28;20191;-85
2022/12/02 05:19:09;;;;;;;65.43;27.50;;;5.10;99.90;;;;;;5005557;28;20186;-84
2022/12/02 05:21:35;;;;;;;68.60;30.93;;;5.10;99.90;;;;;;5007875;28;20179;-84
2022/12/02 05:24:00;;;;;;;62.20;28.57;;;5.10;99.90;;;;;;4981760;28;20191;-86
2022/12/02 05:26:26;;;;;;;58.83;27.40;;;5.10;99.90;;;;;;5014233;28;20280;-84
2022/12/02 05:28:52;;;;;;;66.80;29.00;;;5.10;1.00;;;;;;4990063;28;20270;-84
2022/12/02 05:31:17;;;;;;;68.97;25.90;;;5.10;1.00;;;;;;4988634;28;20199;-83
2022/12/02 05:33:43;;;;;;;61.80;27.50;;;5.10;1.00;;;;;;5008488;28;20178;-83
2022/12/02 05:36:11;;;;;;;60.70;26.60;;;5.10;1.00;;;;;;5008223;28;20204;-84
2022/12/02 05:38:40;;;;;;;68.50;27.88;;;5.20;1.00;;;;;;4980947;28;20234;-84
2022/12/02 05:41:06;;;;;;;66.45;29.02;;;5.20;99.90;;;;;;4999310;28;20218;-83
2022/12/02 05:43:39;;;;;;;65.03;29.35;;;5.10;1.00;;;;;;4996320;28;20194;-84
2022/12/02 05:46:12;;;;;;;67.05;29.65;;;5.20;1.00;;;;;;5007143;28;20202;-84
2022/12/02 05:48:38;;;;;;;69.88;29.40;;;5.10;1.00;;;;;;5010002;28;20194;-83
2022/12/02 05:51:09;;;;;;;67.17;28.43;;;5.10;1.00;;;;;;4985157;28;20594;-84
2022/12/02 05:53:37;;;;;;;62.92;28.60;;;5.10;1.00;;;;;;4994814;28;20188;-84
2022/12/02 05:56:05;;;;;;;56.10;26.40;;;5.10;1.00;;;;;;4995492;28;20592;-85
2022/12/02 05:58:30;;;;;;;61.58;29.65;;;5.10;1.00;;;;;;4990582;28;20190;-84
2022/12/02 06:00:59;;;;;;;59.73;28.73;;;5.10;1.00;;;;;;4995001;28;20540;-85
2022/12/02 06:03:25;;;;;;;61.35;28.90;;;5.10;1.00;;;;;;4997091;28;20218;-86
2022/12/02 06:05:54;;;;;;;63.80;29.83;;;5.10;1.00;;;;;;4996100;28;20199;-85
2022/12/02 06:08:26;;;;;;;53.30;25.75;;;5.10;1.00;;;;;;4995845;28;20207;-87
2022/12/02 06:11:20;;;;;;;56.35;25.48;;;5.10;1.00;;;;;;4978098;28;20215;-87
2022/12/02 06:13:46;;;;;;;64.93;27.60;;;5.10;17.10;;;;;;4973630;28;20195;-85
2022/12/02 06:16:20;;;;;;;64.97;27.73;;;5.10;81.50;;;;;;4996497;28;20204;-86
2022/12/02 06:18:46;;;;;;;68.07;28.58;;;5.10;99.90;;;;;;4971666;28;20179;-85
2022/12/02 06:21:14;;;;;;;57.53;25.37;;;5.10;99.90;;;;;;4979130;28;20222;-85
2022/12/02 06:23:45;;;;;;;60.30;26.30;;;5.10;76.20;;;;;;4992988;28;20238;-84
2022/12/02 06:26:14;;;;;;;56.45;27.63;;;5.10;99.90;;;;;;4999006;28;20258;-84
2022/12/02 06:28:43;;;;;;;58.20;27.85;;;5.10;99.90;;;;;;5001008;28;20187;-86
2022/12/02 06:31:33;;;;;;;60.17;27.58;;;5.10;1.00;;;;;;4990890;28;20327;-86
2022/12/02 06:34:04;;;;;;;63.92;27.42;;;5.10;99.90;;;;;;4977936;28;20202;-84
2022/12/02 06:36:32;;;;;;;62.95;27.13;;;5.10;99.90;;;;;;5017782;28;20245;-85
2022/12/02 06:39:10;;;;;;;60.10;25.70;;;5.10;99.90;;;;;;5006186;28;20186;-85
2022/12/02 06:41:36;;;;;;;60.58;27.13;;;5.00;1.00;;;;;;4980062;28;20164;-83
2022/12/02 06:48:27;;;;;;;55.53;26.80;;;5.10;1.00;;;;;;5083879;28;20619;-84
2022/12/02 06:50:56;;;;;;;64.78;26.55;;;5.20;99.90;;;;;;5055256;28;20217;-84
2022/12/02 06:53:30;;;;;;;68.38;26.52;;;5.20;99.90;;;;;;5078684;28;20176;-85
2022/12/02 06:56:20;;;;;;;67.07;29.05;;;5.20;1.00;;;;;;5098192;28;20192;-84
2022/12/02 06:58:59;;;;;;;68.57;27.23;;;5.20;1.00;;;;;;5097021;28;20228;-85
2022/12/02 07:01:40;;;;;;;58.30;25.65;;;5.20;1.00;;;;;;5067305;28;20173;-85
2022/12/02 07:04:09;;;;;;;57.17;27.50;;;5.20;1.00;;;;;;5045453;28;20205;-85
2022/12/02 07:06:40;;;;;;;60.75;24.35;;;5.20;1.00;;;;;;5057019;28;20202;-85
2022/12/02 07:09:19;;;;;;;53.15;24.08;;;5.10;1.00;;;;;;5056102;28;20253;-84
2022/12/02 07:11:49;;;;;;;54.30;25.42;;;5.10;1.00;;;;;;5065856;28;20257;-84
2022/12/02 07:14:43;;;;;;;50.97;24.10;;;5.20;99.90;;;;;;5056755;28;20186;-84
2022/12/02 07:17:26;;;;;;;59.42;26.20;;;5.30;99.90;;;;;;5071245;28;20177;-83
2022/12/02 07:20:00;;;;;;;73.97;25.40;;;5.40;57.80;;;;;;5071754;28;20188;-83
2022/12/02 07:22:43;;;;;;;53.17;23.77;;;5.40;1.00;;;;;;5048425;28;20182;-84
2022/12/02 07:25:08;;;;;;;65.85;25.58;;;5.50;1.00;;;;;;5071786;28;20228;-84
2022/12/02 07:27:40;;;;;;;64.50;27.37;;;5.50;99.90;;;;;;5077110;28;20197;-84
2022/12/02 07:30:25;;;;;;;69.20;27.48;;;5.50;99.90;;;;;;5057803;28;20257;-84
2022/12/02 07:32:51;;;;;;;59.47;25.80;;;5.50;99.90;;;;;;5057353;28;20162;-83
2022/12/02 07:35:17;;;;;;;60.33;27.47;;;5.50;99.90;;;;;;5059019;28;20225;-84
2022/12/02 07:37:42;;;;;;;58.97;25.10;;;5.50;1.00;;;;;;5060650;28;20834;-80
2022/12/02 07:40:09;;;;;;;57.30;23.90;;;5.60;99.90;;;;;;5059812;28;20186;-85
2022/12/02 07:42:34;;;;;;;55.10;23.38;;;5.50;99.90;;;;;;5066964;28;20181;-84
2022/12/02 07:45:00;;;;;;;56.93;25.97;;;5.50;99.90;;;;;;5057343;28;20533;-85
2022/12/02 07:47:25;;;;;;;61.10;25.83;;;5.50;99.90;;;;;;5074224;28;20274;-84
2022/12/02 07:49:51;;;;;;;49.53;24.17;;;5.50;1.00;;;;;;5064384;28;20248;-84
2022/12/02 07:52:16;;;;;;;65.17;26.60;;;5.60;1.00;;;;;;5068274;28;20182;-85
2022/12/02 07:54:42;;;;;;;59.97;24.70;;;5.60;1.00;;;;;;5063523;28;20189;-84
2022/12/02 07:57:07;;;;;;;62.60;24.80;;;5.60;1.00;;;;;;5058810;28;20192;-84
2022/12/02 07:59:33;;;;;;;63.57;25.37;;;5.60;1.00;;;;;;5047928;28;20193;-84
2022/12/02 08:01:58;;;;;;;65.77;26.60;;;5.60;99.90;;;;;;5065955;28;20213;-85
2022/12/02 08:04:24;;;;;;;65.20;25.43;;;5.60;1.00;;;;;;5053058;28;20238;-83
2022/12/02 08:06:50;;;;;;;60.47;25.37;;;5.60;1.00;;;;;;5063849;28;20213;-85
2022/12/02 08:09:15;;;;;;;54.37;25.47;;;5.60;1.00;;;;;;5034710;28;20199;-83
2022/12/02 08:11:41;;;;;;;49.43;22.30;;;5.60;1.00;;;;;;5039149;28;20605;-83
2022/12/02 08:14:06;;;;;;;61.70;24.63;;;5.50;1.00;;;;;;5047533;28;20221;-85
2022/12/02 08:16:32;;;;;;;54.37;23.83;;;5.50;65.40;;;;;;5049840;28;20665;-83
2022/12/02 08:18:59;;;;;;;52.67;22.50;;;5.50;99.90;;;;;;5023302;28;20277;-84
2022/12/02 08:21:25;;;;;;;53.97;22.88;;;5.50;99.90;;;;;;5030154;28;20196;-84
2022/12/02 08:23:50;;;;;;;47.40;21.30;;;5.50;99.90;;;;;;5048876;28;20182;-83
2022/12/02 08:26:18;;;;;;;46.23;23.47;;;5.40;99.90;;;;;;5051823;28;20204;-83
2022/12/02 08:28:43;;;;;;;47.58;23.05;;;5.40;99.90;;;;;;5043663;28;20181;-84
2022/12/02 08:31:09;;;;;;;55.20;22.67;;;5.40;1.00;;;;;;5044776;28;20178;-84
2022/12/02 08:33:35;;;;;;;53.50;23.17;;;5.40;1.00;;;;;;5028769;28;20250;-84
2022/12/02 08:36:00;;;;;;;54.30;22.13;;;5.50;1.00;;;;;;5045224;28;20198;-85
2022/12/02 08:38:26;;;;;;;49.17;20.13;;;5.50;1.00;;;;;;5026321;28;20242;-85
2022/12/02 08:40:51;;;;;;;62.80;24.47;;;5.40;1.00;;;;;;5035782;28;20177;-83
2022/12/02 08:43:17;;;;;;;57.53;22.67;;;5.40;99.90;;;;;;5047565;28;20637;-84
2022/12/02 08:45:44;;;;;;;63.60;23.10;;;5.40;99.90;;;;;;5052639;28;20660;-84
2022/12/02 08:48:10;;;;;;;54.47;22.65;;;5.40;99.90;;;;;;5040763;28;20491;-88
2022/12/02 08:50:36;;;;;;;65.97;24.48;;;5.40;99.90;;;;;;5049654;28;20227;-83
2022/12/02 08:53:05;;;;;;;68.40;24.90;;;5.40;1.00;;;;;;5039910;28;20186;-85
2022/12/02 08:55:30;;;;;;;50.67;22.15;;;5.30;1.00;;;;;;5038834;28;20210;-86
2022/12/02 08:57:56;;;;;;;58.03;23.33;;;5.30;1.00;;;;;;5056625;28;20185;-85
2022/12/02 09:00:22;;;;;;;53.03;23.70;;;5.30;1.00;;;;;;5051347;28;20275;-85
2022/12/02 09:02:48;;;;;;;68.20;26.60;;;5.30;1.00;;;;;;5035242;28;21498;-85
2022/12/02 09:05:13;;;;;;;60.83;24.53;;;5.30;14.30;;;;;;5038587;28;20198;-85
2022/12/02 09:07:39;;;;;;;67.77;26.60;;;5.30;96.70;;;;;;5054028;28;20201;-85
2022/12/02 09:10:06;;;;;;;85.18;27.58;;;5.30;99.90;;;;;;5040170;28;20201;-84
2022/12/02 09:12:32;;;;;;;65.80;25.85;;;5.30;99.90;;;;;;5047908;28;20193;-84
2022/12/02 09:14:58;;;;;;;76.05;28.30;;;5.30;99.90;;;;;;5033251;28;20188;-85
2022/12/02 09:17:23;;;;;;;64.57;23.60;;;5.30;99.90;;;;;;5048406;28;20187;-84
2022/12/02 09:19:49;;;;;;;63.67;25.70;;;5.40;99.90;;;;;;5039210;28;20189;-84
2022/12/02 09:22:14;;;;;;;68.07;26.03;;;5.40;99.90;;;;;;5038167;28;20173;-83
2022/12/02 09:24:40;;;;;;;59.73;26.80;;;5.40;99.90;;;;;;5043833;28;20194;-84
2022/12/02 09:27:05;;;;;;;75.83;28.40;;;5.30;99.90;;;;;;5053806;28;20608;-84
2022/12/02 09:29:32;;;;;;;79.90;27.90;;;5.30;99.90;;;;;;5032384;28;20269;-86
2022/12/02 09:31:58;;;;;;;78.90;29.77;;;5.30;1.00;;;;;;5039086;28;20609;-85
2022/12/02 09:34:23;;;;;;;84.00;30.73;;;5.30;1.00;;;;;;5026945;28;20185;-85
2022/12/02 09:36:49;;;;;;;84.70;32.13;;;5.20;1.00;;;;;;5054481;28;20212;-83
2022/12/02 09:39:14;;;;;;;77.17;29.70;;;5.20;1.00;;;;;;5052555;28;20197;-84
2022/12/02 09:41:40;;;;;;;81.50;30.57;;;5.20;1.00;;;;;;5046228;28;20177;-84
2022/12/02 09:44:05;;;;;;;93.50;33.03;;;5.20;1.00;;;;;;5046103;28;20216;-84
2022/12/02 09:46:31;;;;;;;85.37;29.23;;;5.30;1.00;;;;;;5043869;28;20232;-83
2022/12/02 09:48:57;;;;;;;97.77;33.50;;;5.30;1.00;;;;;;5044441;28;20700;-84
2022/12/02 09:51:23;;;;;;;92.43;33.80;;;5.30;1.00;;;;;;5055588;28;20209;-84
2022/12/02 09:53:49;;;;;;;82.73;29.30;;;5.30;1.00;;;;;;5049532;28;20270;-85
2022/12/02 09:56:17;;;;;;;83.13;32.37;;;5.30;1.00;;;;;;5052417;28;20447;-85
2022/12/02 09:58:43;;;;;;;84.35;32.15;;;5.30;1.00;;;;;;5054015;28;20780;-84
2022/12/02 10:01:10;;;;;;;95.90;32.35;;;5.30;1.00;;;;;;5031960;28;20177;-86
2022/12/02 10:03:36;;;;;;;93.60;32.92;;;5.30;1.00;;;;;;5052784;28;20169;-83
2022/12/02 10:06:06;;;;;;;70.20;29.60;;;5.30;1.00;;;;;;5060008;28;20228;-82
2022/12/02 10:08:32;;;;;;;86.82;30.38;;;5.40;1.00;;;;;;5054975;28;20527;-84
2022/12/02 10:10:58;;;;;;;85.93;31.13;;;5.40;99.90;;;;;;5043452;28;20661;-84
2022/12/02 10:13:25;;;;;;;89.43;32.95;;;5.40;1.00;;;;;;5050535;28;20212;-85
2022/12/02 10:15:52;;;;;;;76.97;31.73;;;5.50;1.00;;;;;;5041024;28;21583;-85
2022/12/02 10:18:21;;;;;;;78.95;33.10;;;5.50;99.90;;;;;;5049459;28;20170;-85
2022/12/02 10:20:49;;;;;;;91.93;31.80;;;5.50;99.90;;;;;;5050678;28;20614;-85
2022/12/02 10:23:16;;;;;;;84.55;31.45;;;5.50;99.90;;;;;;5031785;28;20177;-84
2022/12/02 10:25:54;;;;;;;68.03;34.15;;;5.40;99.90;;;;;;5054326;28;20209;-86
2022/12/02 10:28:27;;;;;;;77.60;31.15;;;5.40;99.90;;;;;;5032601;28;20249;-84
2022/12/02 10:30:56;;;;;;;71.57;31.35;;;5.40;99.90;;;;;;5027758;28;20206;-85
2022/12/02 10:33:24;;;;;;;77.15;30.00;;;5.40;99.90;;;;;;5042270;28;20512;-85
2022/12/02 10:35:51;;;;;;;76.53;32.03;;;5.40;99.90;;;;;;5056845;28;20193;-84
2022/12/02 10:38:31;;;;;;;72.70;29.15;;;5.40;99.90;;;;;;5046664;28;20208;-82
2022/12/02 10:41:15;;;;;;;79.47;32.60;;;5.40;99.90;;;;;;5031470;28;20178;-83
2022/12/02 10:43:43;;;;;;;69.72;32.42;;;5.40;99.90;;;;;;5050587;28;20186;-84
2022/12/02 10:46:15;;;;;;;73.53;29.73;;;5.40;99.90;;;;;;5051101;28;20216;-87
2022/12/02 10:48:41;;;;;;;75.35;30.92;;;5.40;99.90;;;;;;5051129;28;20264;-85
2022/12/02 10:51:13;;;;;;;69.63;30.97;;;5.40;99.90;;;;;;5034686;28;20193;-86
2022/12/02 10:53:39;;;;;;;78.03;32.03;;;5.50;99.90;;;;;;5043683;28;20189;-84
2022/12/02 10:56:05;;;;;;;63.63;29.43;;;5.50;99.90;;;;;;5033774;28;20560;-82
2022/12/02 10:58:30;;;;;;;58.63;27.80;;;5.50;1.00;;;;;;5029406;28;20435;-84
2022/12/02 11:00:57;;;;;;;72.50;29.30;;;5.50;1.00;;;;;;5045086;28;20428;-83
2022/12/02 11:03:23;;;;;;;72.53;28.95;;;5.50;1.00;;;;;;5051077;28;20187;-85
2022/12/02 11:05:50;;;;;;;73.68;28.70;;;5.50;1.00;;;;;;5045744;28;20202;-85
2022/12/02 11:08:19;;;;;;;70.40;27.33;;;5.60;1.00;;;;;;5025580;28;20665;-87
2022/12/02 11:10:47;;;;;;;62.65;31.40;;;5.60;99.90;;;;;;5032168;28;20307;-85
2022/12/02 11:13:13;;;;;;;69.78;28.17;;;5.60;99.90;;;;;;5040127;28;20609;-84
2022/12/02 11:15:52;;;;;;;64.73;27.80;;;5.50;99.90;;;;;;5027307;28;20224;-84
2022/12/02 11:18:29;;;;;;;55.30;24.83;;;5.50;99.90;;;;;;5049122;28;20173;-86
2022/12/02 11:21:31;;;;;;;64.93;25.50;;;5.60;99.90;;;;;;5041812;28;20174;-84
2022/12/02 11:24:25;;;;;;;56.95;26.92;;;5.60;1.00;;;;;;5036503;28;20672;-85
2022/12/02 11:27:00;;;;;;;60.05;27.58;;;5.50;1.00;;;;;;5028762;28;20227;-85
2022/12/02 11:29:25;;;;;;;54.97;27.15;;;5.50;1.00;;;;;;5046535;28;20181;-86
2022/12/02 11:32:17;;;;;;;56.07;27.20;;;5.50;1.00;;;;;;5050034;28;20692;-85
2022/12/02 11:34:51;;;;;;;65.65;26.02;;;5.50;99.90;;;;;;5040491;28;20280;-82
2022/12/02 11:37:26;;;;;;;61.72;28.17;;;5.50;99.90;;;;;;5048909;28;20186;-85
2022/12/02 11:40:15;;;;;;;57.78;25.35;;;5.50;99.90;;;;;;5046951;28;20217;-86
2022/12/02 11:42:43;;;;;;;58.58;26.77;;;5.50;99.90;;;;;;5050603;28;20182;-85
2022/12/02 11:45:15;;;;;;;55.10;26.95;;;5.40;99.90;;;;;;5039830;28;20205;-84
2022/12/02 11:47:55;;;;;;;52.58;25.42;;;5.40;99.90;;;;;;5018151;28;20237;-84
2022/12/02 11:50:28;;;;;;;55.83;27.55;;;5.40;99.90;;;;;;5019402;28;20190;-84
2022/12/02 11:52:56;;;;;;;51.50;24.63;;;5.40;99.90;;;;;;5040376;28;20527;-84
2022/12/02 11:55:25;;;;;;;52.70;26.65;;;5.40;99.90;;;;;;5039669;28;20220;-84
2022/12/02 11:57:55;;;;;;;63.83;28.67;;;5.40;99.90;;;;;;5044410;28;20186;-84
2022/12/02 12:00:26;;;;;;;56.53;27.65;;;5.40;99.90;;;;;;5050358;28;20186;-84
2022/12/02 12:03:13;;;;;;;59.40;28.20;;;5.40;99.90;;;;;;5050692;28;20178;-85
2022/12/02 12:06:01;;;;;;;46.83;23.83;;;5.40;1.00;;;;;;5060914;28;20197;-83
2022/12/02 12:08:26;;;;;;;55.35;27.63;;;5.40;1.00;;;;;;5065610;28;20200;-83
2022/12/02 12:11:15;;;;;;;58.27;28.40;;;5.40;1.00;;;;;;5050406;28;20197;-85
2022/12/02 12:14:18;;;;;;;57.58;28.65;;;5.40;1.00;;;;;;5043939;28;20260;-86
2022/12/02 12:16:46;;;;;;;49.83;27.10;;;5.40;1.00;;;;;;5047922;28;20231;-85
2022/12/02 12:19:12;;;;;;;48.85;25.67;;;5.40;1.00;;;;;;5053525;28;20256;-84
2022/12/02 12:21:41;;;;;;;58.17;24.70;;;5.50;1.00;;;;;;5039505;28;20231;-85
2022/12/02 12:24:18;;;;;;;57.17;27.85;;;5.50;99.90;;;;;;5049531;28;20220;-85
2022/12/02 12:26:47;;;;;;;56.05;28.58;;;5.60;1.00;;;;;;5041861;28;20210;-83
2022/12/02 12:29:12;;;;;;;53.58;27.90;;;5.60;63.10;;;;;;5047535;28;20303;-85
2022/12/02 12:31:38;;;;;;;47.70;24.50;;;5.60;6.50;;;;;;5050599;28;20202;-85
2022/12/02 12:34:05;;;;;;;48.20;27.23;;;5.60;1.00;;;;;;5027941;28;20209;-85
2022/12/02 12:36:30;;;;;;;46.92;25.15;;;5.70;99.90;;;;;;5037275;28;20201;-86
2022/12/02 12:38:56;;;;;;;54.00;28.07;;;5.70;1.00;;;;;;5049209;28;20268;-85
2022/12/02 12:41:21;;;;;;;50.77;27.10;;;5.70;1.00;;;;;;5047768;28;20217;-85
2022/12/02 12:43:47;;;;;;;57.67;27.50;;;5.80;1.00;;;;;;5045258;28;20810;-85
2022/12/02 12:46:13;;;;;;;54.47;28.50;;;5.90;99.90;;;;;;5040148;28;20210;-84
2022/12/02 12:48:38;;;;;;;53.20;28.60;;;6.00;99.90;;;;;;5046924;28;20182;-84
2022/12/02 12:51:04;;;;;;;51.03;28.90;;;6.00;99.90;;;;;;5047150;28;20182;-84
2022/12/02 12:53:30;;;;;;;58.47;27.67;;;6.20;40.40;;;;;;5043488;28;20708;-85
2022/12/02 12:55:55;;;;;;;52.07;27.50;;;6.20;1.00;;;;;;5045716;28;20197;-84
2022/12/02 12:58:22;;;;;;;47.57;26.20;;;6.20;1.00;;;;;;5047145;28;20202;-86